createdAt,value
2023-04-27T00:01:23.449Z,75.17
2023-04-27T00:03:51.194Z,75.22
2023-04-27T00:06:18.930Z,75.14
2023-04-27T00:08:46.820Z,74.90
2023-04-27T00:11:14.728Z,74.96
2023-04-27T00:13:42.686Z,74.93
2023-04-27T00:16:10.432Z,75.08
2023-04-27T00:18:38.209Z,75.29
2023-04-27T00:21:05.857Z,75.53
2023-04-27T00:23:33.742Z,76.18
2023-04-27T00:26:01.809Z,76.09
2023-04-27T00:28:29.661Z,76.07
2023-04-27T00:30:59.474Z,75.83
2023-04-27T00:33:28.125Z,75.90
2023-04-27T00:36:02.505Z,76.23
2023-04-27T00:38:31.116Z,76.09
2023-04-27T00:41:05.588Z,76.24
2023-04-27T00:43:35.917Z,76.23
2023-04-27T00:46:04.250Z,76.21
2023-04-27T00:48:32.025Z,76.29
2023-04-27T00:51:00.515Z,76.17
2023-04-27T00:53:30.522Z,76.33
2023-04-27T00:55:58.400Z,76.31
2023-04-27T00:58:26.472Z,76.34
2023-04-27T01:00:54.220Z,76.33
2023-04-27T01:03:22.962Z,76.37
2023-04-27T01:05:51.328Z,76.28
2023-04-27T01:08:18.979Z,76.21
2023-04-27T01:10:48.807Z,76.33
2023-04-27T01:13:16.538Z,76.29
2023-04-27T01:15:44.243Z,76.33
2023-04-27T01:18:12.122Z,76.19
2023-04-27T01:20:41.763Z,76.32
2023-04-27T01:23:17.100Z,76.47
2023-04-27T01:25:45.246Z,76.28
2023-04-27T01:28:13.033Z,76.12
2023-04-27T01:30:40.763Z,76.16
2023-04-27T01:33:08.866Z,76.17
2023-04-27T01:35:36.690Z,76.32
2023-04-27T01:38:04.579Z,76.47
2023-04-27T01:40:32.272Z,76.33
2023-04-27T01:43:00.525Z,76.39
2023-04-27T01:45:29.204Z,76.38
2023-04-27T01:47:57.057Z,76.29
2023-04-27T01:50:24.827Z,76.26
2023-04-27T01:52:52.581Z,76.41
2023-04-27T01:55:20.507Z,76.42
2023-04-27T01:57:48.540Z,76.59
2023-04-27T02:00:17.219Z,76.71
2023-04-27T02:02:53.842Z,76.72
2023-04-27T02:05:26.314Z,76.59
2023-04-27T02:07:54.182Z,76.73
2023-04-27T02:10:23.454Z,76.75
2023-04-27T02:12:52.921Z,76.73
2023-04-27T02:15:20.925Z,76.97
2023-04-27T02:17:50.041Z,77.92
2023-04-27T02:20:18.205Z,78.06
2023-04-27T02:22:45.994Z,78.00
2023-04-27T02:25:13.766Z,78.31
2023-04-27T02:27:43.308Z,78.36
2023-04-27T02:30:12.666Z,78.62
2023-04-27T02:32:42.085Z,78.87
2023-04-27T02:35:10.758Z,78.75
2023-04-27T02:37:38.793Z,79.13
2023-04-27T02:40:10.953Z,79.42
2023-04-27T02:42:39.289Z,79.34
2023-04-27T02:45:10.713Z,79.33
2023-04-27T02:47:38.487Z,79.45
2023-04-27T02:50:07.552Z,79.30
2023-04-27T02:52:35.822Z,79.47
2023-04-27T02:55:03.708Z,79.35
2023-04-27T02:57:31.454Z,79.24
2023-04-27T02:59:59.130Z,79.33
2023-04-27T03:02:27.242Z,79.03
2023-04-27T03:04:55.582Z,79.14
2023-04-27T03:07:23.381Z,79.18
2023-04-27T03:09:51.328Z,79.23
2023-04-27T03:12:19.221Z,79.21
2023-04-27T03:14:49.227Z,79.15
2023-04-27T03:17:16.878Z,79.11
2023-04-27T03:19:44.527Z,79.25
2023-04-27T03:22:12.119Z,79.51
2023-04-27T03:24:39.701Z,79.37
2023-04-27T03:27:07.671Z,79.34
2023-04-27T03:29:37.133Z,79.34
2023-04-27T03:32:06.511Z,79.50
2023-04-27T03:34:34.232Z,79.54
2023-04-27T03:37:02.457Z,79.57
2023-04-27T03:39:30.293Z,79.70
2023-04-27T03:41:58.726Z,79.70
2023-04-27T03:44:26.520Z,79.54
2023-04-27T03:46:54.354Z,79.64
2023-04-27T03:49:22.521Z,79.73
2023-04-27T03:51:51.103Z,79.73
2023-04-27T03:54:18.902Z,79.85
2023-04-27T03:56:47.404Z,79.83
2023-04-27T03:59:15.803Z,79.74
2023-04-27T04:01:45.526Z,79.83
2023-04-27T04:04:14.806Z,79.86
2023-04-27T04:06:43.092Z,79.85
2023-04-27T04:09:13.134Z,79.88
2023-04-27T04:11:41.374Z,79.87
2023-04-27T04:14:10.914Z,79.84
2023-04-27T04:16:38.905Z,79.95
2023-04-27T04:19:06.785Z,80.37
2023-04-27T04:21:35.146Z,79.99
2023-04-27T04:24:03.621Z,79.60
2023-04-27T04:26:31.972Z,79.38
2023-04-27T04:29:00.669Z,80.78
2023-04-27T04:31:29.270Z,84.00
2023-04-27T04:34:09.823Z,85.02
2023-04-27T04:36:38.059Z,82.17
2023-04-27T04:39:06.310Z,78.61
2023-04-27T04:41:34.799Z,73.65
2023-04-27T04:44:05.840Z,69.44
2023-04-27T04:46:36.874Z,63.50
2023-04-27T04:49:07.378Z,61.76
2023-04-27T04:51:35.194Z,59.59
2023-04-27T04:54:05.131Z,57.11
2023-04-27T04:56:37.618Z,56.39
2023-04-27T04:59:06.113Z,53.93
2023-04-27T05:01:33.794Z,51.61
2023-04-27T05:04:03.203Z,51.55
2023-04-27T05:06:31.794Z,49.92
2023-04-27T05:09:00.058Z,48.51
2023-04-27T05:11:36.096Z,48.50
2023-04-27T05:14:03.769Z,46.92
2023-04-27T05:16:31.754Z,46.17
2023-04-27T05:19:00.623Z,45.49
2023-04-27T05:21:28.403Z,45.12
2023-04-27T05:23:55.935Z,45.68
2023-04-27T05:26:23.557Z,45.42
2023-04-27T05:28:51.385Z,46.05
2023-04-27T05:31:19.258Z,44.62
2023-04-27T05:33:46.789Z,45.56
2023-04-27T05:36:14.731Z,45.76
2023-04-27T05:39:00.797Z,46.27
2023-04-27T05:41:30.015Z,46.40
2023-04-27T05:44:07.957Z,45.66
2023-04-27T05:46:38.415Z,46.25
2023-04-27T05:49:05.339Z,46.99
2023-04-27T05:51:33.545Z,46.32
2023-04-27T05:54:01.565Z,45.74
2023-04-27T05:56:29.418Z,46.92
2023-04-27T05:58:57.026Z,47.81
2023-04-27T06:01:24.794Z,48.54
2023-04-27T06:03:52.826Z,50.55
2023-04-27T06:06:21.035Z,48.54
2023-04-27T06:08:48.674Z,49.26
2023-04-27T06:11:16.704Z,48.86
2023-04-27T06:13:44.502Z,49.14
2023-04-27T06:16:12.916Z,50.31
2023-04-27T06:18:41.133Z,50.65
2023-04-27T06:21:08.895Z,49.03
2023-04-27T06:23:36.900Z,46.90
2023-04-27T06:26:04.928Z,45.18
2023-04-27T06:28:33.491Z,43.95
2023-04-27T06:31:01.476Z,42.91
2023-04-27T06:33:32.090Z,41.05
2023-04-27T06:36:02.266Z,40.76
2023-04-27T06:38:30.520Z,40.34
2023-04-27T06:40:58.853Z,39.24
2023-04-27T06:43:26.820Z,38.49
2023-04-27T06:45:54.681Z,38.52
2023-04-27T06:48:22.203Z,38.74
2023-04-27T06:50:50.469Z,38.61
2023-04-27T06:53:18.421Z,37.25
2023-04-27T06:55:48.380Z,38.16
2023-04-27T06:58:16.230Z,38.75
2023-04-27T07:00:44.021Z,37.83
2023-04-27T07:03:11.960Z,38.47
2023-04-27T07:05:39.898Z,38.91
2023-04-27T07:08:08.731Z,38.35
2023-04-27T07:10:36.905Z,38.58
2023-04-27T07:13:06.344Z,38.29
2023-04-27T07:15:34.516Z,38.65
2023-04-27T07:18:02.364Z,38.55
2023-04-27T07:20:30.664Z,37.86
2023-04-27T07:22:58.516Z,37.87
2023-04-27T07:25:26.122Z,37.65
2023-04-27T07:27:54.696Z,37.12
2023-04-27T07:30:24.008Z,38.36
2023-04-27T07:32:54.214Z,37.12
2023-04-27T07:35:22.006Z,36.75
2023-04-27T07:37:50.812Z,37.11
2023-04-27T07:40:21.684Z,36.40
2023-04-27T07:42:50.591Z,36.73
2023-04-27T07:45:18.224Z,37.81
2023-04-27T07:47:46.133Z,37.01
2023-04-27T07:50:15.799Z,36.79
2023-04-27T07:52:43.946Z,38.16
2023-04-27T07:55:11.756Z,39.07
2023-04-27T07:57:39.289Z,35.24
2023-04-27T08:00:10.426Z,36.56
2023-04-27T08:02:40.077Z,35.97
2023-04-27T08:05:09.053Z,33.69
2023-04-27T08:07:42.526Z,34.54
2023-04-27T08:10:08.258Z,33.96
2023-04-27T08:12:39.219Z,35.95
2023-04-27T08:15:08.186Z,31.44
2023-04-27T08:17:36.699Z,31.66
2023-04-27T08:20:06.693Z,33.14
2023-04-27T08:22:34.265Z,32.92
2023-04-27T08:25:03.798Z,34.08
2023-04-27T08:27:32.803Z,34.58
2023-04-27T08:30:01.173Z,35.00
2023-04-27T08:32:29.080Z,35.55
2023-04-27T08:34:58.892Z,34.94
2023-04-27T08:37:27.971Z,36.39
2023-04-27T08:39:56.455Z,35.01
2023-04-27T08:42:24.679Z,35.68
2023-04-27T08:44:53.392Z,34.55
2023-04-27T08:47:28.387Z,35.89
2023-04-27T08:49:53.754Z,34.24
2023-04-27T08:52:21.696Z,33.98
2023-04-27T08:54:49.386Z,34.03
2023-04-27T08:57:17.206Z,33.09
2023-04-27T08:59:45.455Z,33.79
2023-04-27T09:02:20.864Z,33.18
2023-04-27T09:04:48.648Z,31.74
2023-04-27T09:07:18.257Z,31.02
2023-04-27T09:09:47.966Z,31.59
2023-04-27T09:12:20.872Z,31.13
2023-04-27T09:15:05.929Z,32.51
2023-04-27T09:17:33.685Z,32.95
2023-04-27T09:20:12.037Z,33.15
2023-04-27T09:22:47.988Z,31.73
2023-04-27T09:25:33.426Z,32.43
2023-04-27T09:28:01.857Z,32.87
2023-04-27T09:30:30.286Z,32.20
2023-04-27T09:33:02.128Z,32.86
2023-04-27T09:35:32.858Z,33.42
2023-04-27T09:38:01.187Z,34.45
2023-04-27T09:40:31.467Z,33.69
2023-04-27T09:43:05.594Z,34.14
2023-04-27T09:45:35.992Z,34.89
2023-04-27T09:48:05.773Z,35.13
2023-04-27T09:50:43.242Z,34.89
2023-04-27T09:53:15.177Z,35.64
2023-04-27T09:55:57.465Z,35.47
2023-04-27T09:58:50.924Z,35.45
2023-04-27T10:01:46.825Z,36.11
2023-04-27T10:04:52.099Z,37.08
2023-04-27T10:07:20.592Z,36.85
2023-04-27T10:09:51.719Z,36.16
2023-04-27T10:12:29.941Z,37.12
2023-04-27T10:15:01.716Z,37.24
2023-04-27T10:17:35.812Z,38.22
2023-04-27T10:20:08.456Z,38.99
2023-04-27T10:22:49.769Z,38.99
2023-04-27T10:25:25.991Z,38.98
2023-04-27T10:28:01.663Z,39.31
2023-04-27T10:30:39.692Z,40.17
2023-04-27T10:33:14.384Z,39.64
2023-04-27T10:35:46.667Z,39.02
2023-04-27T10:38:22.163Z,39.05
2023-04-27T10:41:01.740Z,38.51
2023-04-27T10:43:34.064Z,37.19
2023-04-27T10:46:14.744Z,39.04
2023-04-27T10:48:43.680Z,38.19
2023-04-27T10:51:16.959Z,37.91
2023-04-27T10:53:48.648Z,38.46
2023-04-27T10:56:19.038Z,38.42
2023-04-27T10:58:56.922Z,38.97
2023-04-27T11:01:33.957Z,38.45
2023-04-27T11:04:10.127Z,38.50
2023-04-27T11:06:49.333Z,38.55
2023-04-27T11:09:28.070Z,38.39
2023-04-27T11:11:56.174Z,39.17
2023-04-27T11:14:24.208Z,38.87
2023-04-27T11:16:52.836Z,37.11
2023-04-27T11:19:20.820Z,38.47
2023-04-27T11:21:49.585Z,38.74
2023-04-27T11:24:17.321Z,38.39
2023-04-27T11:26:51.912Z,38.17
2023-04-27T11:29:19.940Z,38.10
2023-04-27T11:31:50.919Z,38.25
2023-04-27T11:34:22.852Z,37.40
2023-04-27T11:39:38.421Z,37.43
2023-04-27T11:42:25.413Z,37.06
2023-04-27T11:45:02.320Z,36.76
2023-04-27T11:47:33.178Z,37.23
2023-04-27T11:50:05.256Z,37.03
2023-04-27T11:52:39.638Z,35.36
2023-04-27T11:55:11.287Z,35.44
2023-04-27T11:57:39.622Z,35.85
2023-04-27T12:00:13.521Z,35.70
2023-04-27T12:02:42.808Z,34.68
2023-04-27T12:05:12.587Z,35.59
2023-04-27T12:07:42.831Z,35.18
2023-04-27T12:10:11.717Z,35.45
2023-04-27T12:12:45.971Z,34.71
2023-04-27T12:15:17.217Z,35.65
2023-04-27T12:17:54.458Z,35.50
2023-04-27T12:20:23.221Z,34.82
2023-04-27T12:22:54.335Z,35.45
2023-04-27T12:25:22.168Z,35.16
2023-04-27T12:27:49.740Z,35.04
2023-04-27T12:30:17.894Z,35.02
2023-04-27T12:32:46.203Z,34.56
2023-04-27T12:35:14.326Z,34.97
2023-04-27T12:37:42.134Z,34.62
2023-04-27T12:40:10.587Z,34.09
2023-04-27T12:42:39.378Z,34.13
2023-04-27T12:45:08.199Z,34.77
2023-04-27T12:50:06.689Z,33.10
2023-04-27T12:52:34.512Z,33.58
2023-04-27T12:55:02.475Z,34.20
2023-04-27T12:57:30.061Z,33.45
2023-04-27T13:00:01.542Z,34.03
2023-04-27T13:02:27.278Z,33.72
2023-04-27T13:04:56.073Z,34.49
2023-04-27T13:07:23.909Z,34.68
2023-04-27T13:09:51.435Z,33.73
2023-04-27T13:12:19.195Z,33.40
2023-04-27T13:14:47.061Z,33.06
2023-04-27T13:17:14.704Z,33.50
2023-04-27T13:19:42.511Z,34.17
2023-04-27T13:22:10.136Z,33.56
2023-04-27T13:24:37.946Z,33.92
2023-04-27T13:27:05.430Z,34.27
2023-04-27T13:29:34.851Z,34.69
2023-04-27T13:32:04.674Z,35.13
2023-04-27T13:34:32.752Z,34.64
2023-04-27T13:37:00.455Z,35.84
2023-04-27T13:39:28.478Z,36.15
2023-04-27T13:41:57.087Z,36.17
2023-04-27T13:44:25.060Z,35.38
2023-04-27T13:46:52.941Z,35.26
2023-04-27T13:49:23.438Z,36.07
2023-04-27T13:51:51.325Z,36.00
2023-04-27T13:54:21.171Z,35.65
2023-04-27T13:56:49.153Z,36.23
2023-04-27T13:59:16.940Z,36.32
2023-04-27T14:01:45.038Z,35.93
2023-04-27T14:04:13.042Z,36.21
2023-04-27T14:06:41.583Z,35.96
2023-04-27T14:09:09.364Z,36.10
2023-04-27T14:11:48.495Z,36.28
2023-04-27T14:14:06.929Z,36.19
2023-04-27T14:16:36.125Z,36.60
2023-04-27T14:19:03.825Z,36.71
2023-04-27T14:21:31.650Z,35.97
2023-04-27T14:23:59.285Z,35.91
2023-04-27T14:26:27.145Z,35.96
2023-04-27T14:28:58.497Z,36.08
2023-04-27T14:31:29.652Z,36.10
2023-04-27T14:33:57.281Z,36.63
2023-04-27T14:36:25.242Z,36.82
2023-04-27T14:38:52.894Z,37.34
2023-04-27T14:41:21.910Z,37.72
2023-04-27T14:43:49.714Z,37.96
2023-04-27T14:46:20.818Z,37.96
2023-04-27T14:48:48.618Z,37.51
2023-04-27T14:51:17.085Z,38.02
2023-04-27T14:53:49.788Z,38.02
2023-04-27T14:56:20.277Z,37.64
2023-04-27T14:58:48.317Z,37.82
2023-04-27T15:01:20.388Z,37.39
2023-04-27T15:03:50.494Z,37.81
2023-04-27T15:06:19.875Z,38.68
2023-04-27T15:08:49.620Z,38.82
2023-04-27T15:11:17.581Z,38.66
2023-04-27T15:13:45.211Z,38.11
2023-04-27T15:16:15.002Z,37.97
2023-04-27T15:18:43.137Z,38.25
2023-04-27T15:21:12.489Z,37.81
2023-04-27T15:23:43.201Z,37.93
2023-04-27T15:29:27.515Z,37.83
2023-04-27T15:31:55.344Z,38.43
2023-04-27T15:34:25.254Z,38.77
2023-04-27T15:36:54.882Z,39.26
2023-04-27T15:39:29.678Z,39.18
2023-04-27T15:46:24.133Z,39.29
2023-04-27T16:11:17.276Z,40.91
2023-04-27T16:13:48.874Z,41.10
2023-04-27T16:16:17.308Z,41.28
2023-04-27T16:18:45.293Z,40.98
2023-04-27T16:21:12.939Z,41.12
2023-04-27T16:23:40.792Z,41.12
2023-04-27T16:26:08.685Z,41.36
2023-04-27T16:28:36.586Z,41.55
2023-04-27T16:31:04.529Z,41.42
2023-04-27T16:33:33.583Z,41.36
2023-04-27T16:36:02.069Z,41.16
2023-04-27T16:38:29.864Z,41.39
2023-04-27T16:40:57.972Z,41.68
2023-04-27T16:43:25.548Z,41.71
2023-04-27T16:45:55.192Z,42.15
2023-04-27T16:48:23.927Z,42.27
2023-04-27T16:50:53.184Z,42.33
2023-04-27T16:53:21.688Z,42.37
2023-04-27T16:55:49.440Z,42.38
2023-04-27T16:58:21.341Z,42.53
2023-04-27T17:00:49.122Z,42.69
2023-04-27T17:03:18.509Z,42.81
2023-04-27T17:05:47.632Z,42.87
2023-04-27T17:08:18.405Z,42.94
2023-04-27T17:10:46.349Z,42.97
2023-04-27T17:13:16.917Z,43.08
2023-04-27T17:15:47.267Z,43.11
2023-04-27T17:18:16.535Z,43.20
2023-04-27T17:21:04.734Z,43.28
2023-04-27T17:23:40.983Z,43.39
2023-04-27T17:26:11.801Z,43.15
2023-04-27T17:28:46.762Z,43.14
2023-04-27T17:31:16.974Z,43.34
2023-04-27T17:33:48.196Z,43.20
2023-04-27T17:36:16.440Z,43.04
2023-04-27T17:38:43.822Z,43.23
2023-04-27T17:41:11.628Z,43.67
2023-04-27T17:43:39.266Z,43.41
2023-04-27T17:46:09.181Z,43.62
2023-04-27T17:48:41.697Z,43.78
2023-04-27T17:51:09.653Z,43.86
2023-04-27T17:53:40.410Z,44.08
2023-04-27T17:56:11.131Z,44.14
2023-04-27T17:58:39.282Z,44.23
2023-04-27T18:01:11.624Z,44.13
2023-04-27T18:03:41.329Z,44.15
2023-04-27T18:06:09.075Z,44.10
2023-04-27T18:08:40.295Z,44.04
2023-04-27T18:11:08.403Z,43.99
2023-04-27T18:13:37.254Z,43.91
2023-04-27T18:16:07.256Z,44.06
2023-04-27T18:18:35.778Z,44.09
2023-04-27T18:21:07.208Z,44.20
2023-04-27T18:23:40.735Z,44.35
2023-04-27T18:26:10.335Z,44.48
2023-04-27T18:28:39.661Z,44.67
2023-04-27T18:31:16.403Z,44.74
2023-04-27T18:33:45.125Z,44.82
2023-04-27T18:36:13.161Z,45.30
2023-04-27T18:38:43.438Z,45.43
2023-04-27T18:41:11.221Z,45.25
2023-04-27T18:43:42.875Z,45.31
2023-04-27T18:46:13.764Z,45.28
2023-04-27T18:48:45.872Z,45.22
2023-04-27T18:51:14.555Z,45.21
2023-04-27T18:53:42.301Z,45.16
2023-04-27T18:56:10.562Z,45.17
2023-04-27T18:58:40.056Z,45.19
2023-04-27T19:01:08.026Z,45.18
2023-04-27T19:03:36.922Z,45.59
2023-04-27T19:06:05.055Z,45.80
2023-04-27T19:08:34.065Z,46.00
2023-04-27T19:11:04.127Z,46.21
2023-04-27T19:13:32.049Z,46.32
2023-04-27T19:16:08.548Z,46.24
2023-04-27T19:18:37.545Z,46.13
2023-04-27T19:21:06.334Z,46.17
2023-04-27T19:23:35.503Z,46.18
2023-04-27T19:26:12.325Z,46.26
2023-04-27T19:28:33.777Z,46.31
2023-04-27T19:31:04.504Z,46.35
2023-04-27T19:33:35.389Z,46.53
2023-04-27T19:36:27.551Z,46.60
2023-04-27T19:38:56.967Z,46.75
2023-04-27T19:41:25.323Z,46.71
2023-04-27T19:43:53.564Z,46.66
2023-04-27T19:46:21.475Z,46.77
2023-04-27T19:48:49.237Z,46.33
2023-04-27T19:51:16.814Z,46.37
2023-04-27T19:53:44.954Z,46.43
2023-04-27T19:56:12.834Z,46.52
2023-04-27T19:58:42.147Z,46.58
2023-04-27T20:01:12.305Z,46.70
2023-04-27T20:03:40.185Z,46.85
2023-04-27T20:06:09.691Z,46.82
2023-04-27T20:08:37.394Z,46.80
2023-04-27T20:11:05.449Z,46.89
2023-04-27T20:13:33.193Z,46.92
2023-04-27T20:16:01.195Z,46.90
2023-04-27T20:18:30.857Z,47.09
2023-04-27T20:20:59.261Z,47.04
2023-04-27T20:23:27.543Z,47.22
2023-04-27T20:25:55.517Z,47.29
2023-04-27T20:28:25.373Z,47.38
2023-04-27T20:30:55.776Z,47.45
2023-04-27T20:33:24.364Z,47.31
2023-04-27T20:35:55.567Z,47.16
2023-04-27T20:38:23.740Z,47.36
2023-04-27T20:40:53.062Z,47.36
2023-04-27T20:43:26.163Z,47.61
2023-04-27T20:45:53.948Z,48.10
2023-04-27T20:48:28.467Z,48.38
2023-04-27T20:50:59.528Z,49.10
2023-04-27T20:53:27.863Z,49.50
2023-04-27T20:55:56.637Z,49.73
2023-04-27T20:58:25.865Z,49.96
2023-04-27T21:00:55.910Z,50.02
2023-04-27T21:03:26.227Z,50.41
2023-04-27T21:05:54.363Z,50.37
2023-04-27T21:08:22.446Z,50.43
2023-04-27T21:10:50.781Z,50.56
2023-04-27T21:13:19.274Z,50.47
2023-04-27T21:15:47.745Z,50.54
2023-04-27T21:18:29.105Z,50.30
2023-04-27T21:20:46.526Z,50.08
2023-04-27T21:23:14.986Z,49.63
2023-04-27T21:25:46.717Z,49.58
2023-04-27T21:28:15.042Z,49.55
2023-04-27T21:30:43.350Z,49.53
2023-04-27T21:33:11.429Z,49.52
2023-04-27T21:35:40.163Z,49.76
2023-04-27T21:38:08.183Z,49.98
2023-04-27T21:40:38.769Z,50.07
2023-04-27T21:43:07.330Z,50.26
2023-04-27T21:45:35.711Z,50.41
2023-04-27T21:48:05.897Z,50.53
2023-04-27T21:50:33.672Z,50.58
2023-04-27T21:53:01.450Z,50.57
2023-04-27T21:55:29.353Z,50.67
2023-04-27T21:57:57.174Z,50.84
2023-04-27T22:00:25.281Z,50.97
2023-04-27T22:02:55.400Z,50.92
2023-04-27T22:05:23.523Z,50.92
2023-04-27T22:07:52.937Z,51.06
2023-04-27T22:10:22.550Z,51.13
2023-04-27T22:12:50.460Z,51.28
2023-04-27T22:15:19.842Z,51.41
2023-04-27T22:17:47.889Z,51.40
2023-04-27T22:20:15.889Z,51.60
2023-04-27T22:22:44.230Z,51.62
2023-04-27T22:25:15.308Z,51.58
2023-04-27T22:27:45.476Z,51.59
2023-04-27T22:30:14.948Z,51.52
2023-04-27T22:32:45.227Z,51.29
2023-04-27T22:35:24.717Z,51.47
2023-04-27T22:37:46.924Z,51.52
2023-04-27T22:40:15.284Z,51.50
2023-04-27T22:42:43.285Z,51.67
2023-04-27T22:45:12.541Z,51.59
2023-04-27T22:47:40.944Z,51.83
2023-04-27T22:50:10.588Z,52.15
2023-04-27T22:52:41.596Z,52.38
2023-04-27T22:55:11.180Z,52.78
2023-04-27T22:57:39.747Z,53.29
2023-04-27T23:00:10.496Z,53.46
2023-04-27T23:02:39.875Z,53.58
2023-04-27T23:05:08.845Z,53.67
2023-04-27T23:07:36.741Z,53.63
2023-04-27T23:10:05.576Z,53.55
2023-04-27T23:12:33.602Z,53.78
2023-04-27T23:15:01.911Z,53.91
2023-04-27T23:17:32.713Z,53.99
2023-04-27T23:20:02.012Z,54.60
2023-04-27T23:22:29.822Z,55.33
2023-04-27T23:24:57.712Z,55.31
2023-04-27T23:27:25.523Z,55.65
2023-04-27T23:29:53.204Z,55.81
2023-04-27T23:32:21.202Z,56.03
2023-04-27T23:34:48.905Z,56.19
2023-04-27T23:37:16.757Z,56.33
2023-04-27T23:39:44.379Z,56.52
2023-04-27T23:42:12.177Z,56.80
2023-04-27T23:44:40.030Z,57.80
2023-04-27T23:47:08.252Z,57.71
2023-04-27T23:49:35.998Z,57.96
2023-04-27T23:52:04.584Z,58.14
2023-04-27T23:54:32.628Z,58.17
2023-04-27T23:57:00.870Z,58.38
2023-04-27T23:59:28.818Z,58.69
